Terminal Aerodrome Forecast
Issued by NWS North Platte, NE

Home | Current Version | Previous Version | Text Only | Print | Product List | Glossary On
Versions: 1 2 3 4 5 6 7 8 9 10 11 12
000
FTUS43 KLBF 010527
TAFVTN
TAF
KVTN 010527Z 0106/0206 VRB05KT P6SM SKC
     FM010900 VRB05KT P6SM VCTS SCT050CB BKN120
     FM011500 20009KT P6SM SCT250
     FM011800 23015G22KT P6SM SCT250
     FM020100 29006KT P6SM SKC=

USA.gov is the U.S. government's official web portal to all federal, state and local government web resources and services.